MAUNA LOA HI US current weather conditions

sailwx.info

Wind from 319 at 4 knots gusting 6

Air temperature 8.9° C
Dewpoint -7.7° C

Last reported at 2014-Dec-20 06:34 UTC.
Time now 2014-Dec-20 07:18 UTC

Location: N 19°28' W 155°22'.
View on Google Maps.

See reports from other nearby stations

  
Tides and Currents Weather Stations Pressure Air Temp Water Temp Dewpoint Dewpoint Depression Visibility Wind Speed Wind Dir Waves Ship Positions
date/time (UTC)wind fromknots sea level pressurealtimeterstation pressurevisibilityair tempwater tempwave heightnotes
2014-Dec-20 06:34 319 4 gusting 6 8.9
2014-Dec-20 05:34 322 5 gusting 6 9.4
2014-Dec-20 04:34 330 3 gusting 5 10.6
2014-Dec-20 03:34 023 0 gusting 5 18.3
2014-Dec-20 02:34 063 3 gusting 6 21.7
2014-Dec-20 01:34 053 3 gusting 7 22.8
2014-Dec-20 00:34 054 5 gusting 13 22.2
2014-Dec-19 23:34 048 6 gusting 13 23.3
2014-Dec-19 22:34 054 4 gusting 9 23.9
2014-Dec-19 21:34 059 4 gusting 9 23.9
2014-Dec-19 20:34 014 6 gusting 14 22.2
2014-Dec-19 19:34 027 4 gusting 8 21.7
2014-Dec-19 18:34 021 8 gusting 13 15.6
2014-Dec-19 17:34 009 6 gusting 11 12.2
2014-Dec-19 16:34 335 6 gusting 11 11.1
2014-Dec-19 15:34 326 6 gusting 11 10.0
2014-Dec-19 14:34 332 6 gusting 13 12.2
2014-Dec-19 13:34 350 7 gusting 13 12.2
2014-Dec-19 12:34 332 6 gusting 12 10.6
2014-Dec-19 11:34 319 6 gusting 10 11.7
2014-Dec-19 10:34 320 6 gusting 10 11.1
2014-Dec-19 09:34 334 5 gusting 7 10.6
2014-Dec-19 08:34 318 5 gusting 7 10.0
2014-Dec-19 07:34 313 5 gusting 6 9.4
2014-Dec-19 06:34 298 5 gusting 7 10.0
2014-Dec-19 05:34 319 5 gusting 6 11.1
2014-Dec-19 04:34 336 3 gusting 5 11.7
2014-Dec-19 03:34 009 2 gusting 6 18.3
2014-Dec-19 02:34 032 2 gusting 9 22.2
2014-Dec-19 01:34 046 4 gusting 13 22.8
2014-Dec-19 00:34 033 7 gusting 14 22.8
2014-Dec-18 23:34 034 8 gusting 15 23.3
2014-Dec-18 22:34 027 9 gusting 19 23.3
2014-Dec-18 21:34 019 9 gusting 17 22.8
2014-Dec-18 20:34 016 11 gusting 19 21.1
2014-Dec-18 19:34 003 10 gusting 19 19.4
2014-Dec-18 18:34 356 8 gusting 18 18.3
2014-Dec-18 17:34 336 6 gusting 13 14.4
2014-Dec-18 16:34 315 6 gusting 12 10.6
2014-Dec-18 15:34 350 6 gusting 13 13.3
2014-Dec-18 14:34 346 5 gusting 12 11.7
2014-Dec-18 13:34 338 4 gusting 11 11.7
2014-Dec-18 12:34 303 3 gusting 8 8.3
2014-Dec-18 11:34 304 3 gusting 7 5.6
2014-Dec-18 10:34 313 5 gusting 7 6.7
2014-Dec-18 09:34 303 5 gusting 7 7.8
2014-Dec-18 08:34 337 2 gusting 8 8.3
2014-Dec-18 07:34 349 4 gusting 10 11.7